Time;durP1;ratioP1;P1;durP2;ratioP2;P2;SDS_P1;SDS_P2;PMS_P1;PMS_P2;Temp;Humidity;BMP_temperature;BMP_pressure;BME280_temperature;BME280_humidity;BME280_pressure;Samples;Min_cycle;Max_cycle;Signal;HPM_P1;HPM_P2
2021/07/18 00:01:25;;;;;;;20.60;16.62;;;;;;;20.47;81.01;100651.34;1828852;78;20875;-71
2021/07/18 00:03:51;;;;;;;20.60;15.88;;;;;;;20.41;80.98;100644.41;1796115;79;22361;-71
2021/07/18 00:06:17;;;;;;;19.32;16.73;;;;;;;20.37;81.01;100645.91;1828847;78;21255;-71
2021/07/18 00:08:43;;;;;;;19.23;16.62;;;;;;;20.35;81.02;100643.14;1796150;79;20962;-71
2021/07/18 00:11:09;;;;;;;22.00;16.75;;;;;;;20.35;81.03;100644.50;1828902;78;20984;-71
2021/07/18 00:13:35;;;;;;;23.42;16.85;;;;;;;20.33;81.02;100647.45;1796213;79;20986;-71
2021/07/18 00:16:01;;;;;;;20.68;17.77;;;;;;;20.32;80.99;100641.72;1828837;78;21639;-71
2021/07/18 00:18:27;;;;;;;22.58;17.95;;;;;;;20.29;81.02;100640.83;1796262;79;21411;-71
2021/07/18 00:20:53;;;;;;;26.02;17.12;;;;;;;20.24;81.02;100640.64;1828744;78;20997;-71
2021/07/18 00:23:19;;;;;;;20.52;17.32;;;;;;;20.21;81.04;100637.55;1795994;79;20951;-71
2021/07/18 00:25:45;;;;;;;24.92;17.65;;;;;;;20.17;81.04;100634.47;1828486;78;20940;-71
2021/07/18 00:28:11;;;;;;;26.15;16.75;;;;;;;20.14;81.05;100635.45;1796261;79;22517;-71
2021/07/18 00:30:37;;;;;;;20.50;16.87;;;;;;;20.10;81.08;100639.14;1828314;78;21057;-71
2021/07/18 00:33:06;;;;;;;27.17;17.52;;;;;;;20.09;81.09;100634.77;1796054;79;21478;-71
2021/07/18 00:35:31;;;;;;;20.85;16.60;;;;;;;20.06;81.10;100628.45;1829075;78;20956;-71
2021/07/18 00:37:57;;;;;;;21.80;17.25;;;;;;;20.05;81.11;100632.77;1796202;79;20990;-71
2021/07/18 00:40:24;;;;;;;21.00;16.30;;;;;;;20.02;81.09;100635.38;1829190;78;21581;-71
2021/07/18 00:42:50;;;;;;;24.57;17.48;;;;;;;20.02;81.10;100635.92;1795974;79;20937;-71
2021/07/18 00:45:16;;;;;;;21.10;16.62;;;;;;;20.01;81.10;100636.45;1828953;78;20962;-71
2021/07/18 00:47:42;;;;;;;20.50;17.65;;;;;;;20.00;81.09;100633.42;1796205;79;21553;-71
2021/07/18 00:50:14;;;;;;;18.35;16.40;;;;;;;19.97;81.13;100635.23;1827766;78;20972;-71
2021/07/18 00:52:40;;;;;;;20.70;16.97;;;;;;;19.98;81.14;100639.61;1764651;81;21479;-71
2021/07/18 00:55:07;;;;;;;24.02;18.02;;;;;;;19.98;81.13;100634.72;1764740;81;20999;-71
2021/07/18 00:57:33;;;;;;;21.02;17.45;;;;;;;19.97;81.14;100642.53;1764486;80;21007;-71
2021/07/18 01:00:01;;;;;;;23.62;17.77;;;;;;;19.97;81.14;100638.47;1764647;81;21035;-71
2021/07/18 01:02:28;;;;;;;26.65;17.92;;;;;;;19.94;81.16;100626.22;1764812;81;21777;-71
2021/07/18 01:04:54;;;;;;;22.82;17.42;;;;;;;19.93;81.19;100631.33;1764656;80;22173;-71
2021/07/18 01:07:20;;;;;;;20.97;18.17;;;;;;;19.93;81.21;100624.55;1764614;80;20971;-71
2021/07/18 01:09:46;;;;;;;24.50;18.32;;;;;;;19.89;81.22;100617.93;1764456;81;20991;-71
2021/07/18 01:12:12;;;;;;;18.98;17.07;;;;;;;19.88;81.24;100613.56;1764482;80;21030;-71
2021/07/18 01:14:38;;;;;;;19.98;17.85;;;;;;;19.87;81.26;100618.70;1764640;80;21011;-71
2021/07/18 01:17:04;;;;;;;23.10;17.48;;;;;;;19.86;81.27;100615.67;1764670;80;21562;-71
2021/07/18 01:19:30;;;;;;;22.58;18.45;;;;;;;19.85;81.30;100615.37;1749241;81;21535;-71
2021/07/18 01:21:58;;;;;;;21.07;17.80;;;;;;;19.84;81.31;100615.09;1749183;81;21010;-71
2021/07/18 01:24:25;;;;;;;20.97;17.37;;;;;;;19.84;81.34;100613.73;1764714;80;21452;-71
2021/07/18 01:26:51;;;;;;;21.68;18.37;;;;;;;19.84;81.33;100617.80;1764520;80;20987;-71
2021/07/18 01:29:18;;;;;;;22.73;19.52;;;;;;;19.83;81.37;100621.55;1764461;80;21491;-71
2021/07/18 01:31:44;;;;;;;21.02;18.57;;;;;;;19.81;81.35;100620.92;1764274;80;20991;-71
2021/07/18 01:34:10;;;;;;;23.20;18.00;;;;;;;19.75;81.35;100612.36;1764216;80;21122;-70
2021/07/18 01:36:36;;;;;;;25.82;17.77;;;;;;;19.68;81.38;100610.25;1764491;80;21542;-71
2021/07/18 01:39:06;;;;;;;23.75;18.85;;;;;;;19.61;81.39;100616.25;1764296;81;21027;-70
2021/07/18 01:41:32;;;;;;;24.85;19.27;;;;;;;19.54;81.43;100614.97;1764792;80;21916;-71
2021/07/18 01:43:58;;;;;;;22.98;19.25;;;;;;;19.48;81.48;100615.03;1764126;81;21011;-71
2021/07/18 01:46:25;;;;;;;24.20;18.82;;;;;;;19.38;81.50;100616.34;1764770;80;21054;-71
2021/07/18 01:48:52;;;;;;;22.50;19.02;;;;;;;19.30;81.53;100620.67;1764749;80;21042;-71
2021/07/18 01:51:22;;;;;;;25.30;19.12;;;;;;;19.21;81.59;100615.23;1763501;79;21014;-70
2021/07/18 01:53:55;;;;;;;21.07;18.45;;;;;;;19.15;81.63;100612.06;1802948;79;21309;-71
2021/07/18 01:56:22;;;;;;;20.85;18.65;;;;;;;19.08;81.68;100613.98;1802573;79;21002;-71
2021/07/18 01:58:50;;;;;;;24.75;19.20;;;;;;;19.00;81.71;100615.60;1802555;79;21034;-70
2021/07/18 02:01:17;;;;;;;28.12;19.15;;;;;;;18.95;81.79;100626.26;1825147;78;21494;-70
2021/07/18 02:03:44;;;;;;;22.27;19.73;;;;;;;18.89;81.84;100628.50;1796638;79;21562;-71
2021/07/18 02:06:10;;;;;;;22.90;18.37;;;;;;;18.82;81.88;100627.71;1825001;78;21580;-71
2021/07/18 02:08:37;;;;;;;23.67;20.23;;;;;;;18.78;81.94;100625.97;1825408;78;21022;-71
2021/07/18 02:11:03;;;;;;;21.82;18.45;;;;;;;18.73;82.01;100627.64;1793034;80;20958;-71
2021/07/18 02:13:29;;;;;;;23.02;19.90;;;;;;;18.69;82.07;100627.25;1825039;78;21026;-70
2021/07/18 02:16:00;;;;;;;27.05;20.05;;;;;;;18.66;82.10;100633.61;1792912;80;21033;-71
2021/07/18 02:18:26;;;;;;;23.52;18.32;;;;;;;18.62;82.16;100628.33;1825358;78;21195;-70
2021/07/18 02:20:56;;;;;;;22.22;19.62;;;;;;;18.56;82.21;100627.34;1792605;80;21637;-71
2021/07/18 02:23:22;;;;;;;24.43;20.50;;;;;;;18.52;82.25;100625.27;1825579;78;21492;-71
2021/07/18 02:25:49;;;;;;;26.87;20.77;;;;;;;18.47;82.28;100626.72;1792863;80;21518;-71
2021/07/18 02:28:16;;;;;;;23.75;18.82;;;;;;;18.42;82.33;100629.25;1824964;78;21030;-71
2021/07/18 02:30:42;;;;;;;25.72;20.02;;;;;;;18.39;82.37;100629.69;1792908;80;21117;-71
2021/07/18 02:33:08;;;;;;;27.37;19.57;;;;;;;18.34;82.44;100628.66;1825471;78;21424;-71
2021/07/18 02:35:34;;;;;;;23.52;19.40;;;;;;;18.29;82.48;100627.97;1792931;80;21017;-71
2021/07/18 02:38:00;;;;;;;23.60;20.10;;;;;;;18.26;82.55;100627.02;1825395;78;21006;-71
2021/07/18 02:40:26;;;;;;;40.73;21.10;;;;;;;18.22;82.57;100629.87;1792774;79;20962;-70
2021/07/18 02:42:52;;;;;;;25.10;19.50;;;;;;;18.21;82.63;100632.25;1825048;78;21121;-71
2021/07/18 02:45:19;;;;;;;23.80;19.55;;;;;;;18.16;82.67;100628.00;1792708;80;20962;-71
2021/07/18 02:47:46;;;;;;;22.85;19.80;;;;;;;18.14;82.71;100631.45;1825117;78;21030;-70
2021/07/18 02:50:15;;;;;;;29.60;20.68;;;;;;;18.12;82.75;100632.72;1792791;80;21026;-70
2021/07/18 02:52:42;;;;;;;22.85;20.10;;;;;;;18.09;82.80;100639.34;1825317;78;21439;-70
2021/07/18 02:55:09;;;;;;;23.85;19.45;;;;;;;18.07;82.85;100646.84;1792905;80;22012;-70
2021/07/18 02:57:35;;;;;;;28.62;20.02;;;;;;;18.05;82.88;100648.10;1825036;78;20944;-70
2021/07/18 03:00:07;;;;;;;27.95;21.12;;;;;;;18.03;82.90;100644.25;1793103;80;20998;-71
2021/07/18 03:02:33;;;;;;;30.97;20.37;;;;;;;18.02;82.93;100643.94;1820635;78;20983;-70
2021/07/18 03:05:01;;;;;;;25.43;19.42;;;;;;;18.03;82.97;100644.77;1792715;80;21025;-70
2021/07/18 03:07:27;;;;;;;24.77;20.23;;;;;;;18.00;82.99;100650.08;1825380;78;21176;-70
2021/07/18 03:09:53;;;;;;;24.65;19.60;;;;;;;17.99;83.01;100648.41;1792597;80;20990;-70
2021/07/18 03:12:19;;;;;;;28.75;20.85;;;;;;;17.98;83.04;100652.14;1825309;78;21464;-70
2021/07/18 03:14:45;;;;;;;29.12;19.27;;;;;;;17.98;83.08;100654.84;1792930;80;21451;-71
2021/07/18 03:17:11;;;;;;;25.88;19.42;;;;;;;17.99;83.13;100661.91;1825498;78;21027;-71
2021/07/18 03:19:37;;;;;;;23.10;18.85;;;;;;;17.98;83.15;100658.89;1792643;80;21071;-71
2021/07/18 03:22:03;;;;;;;26.55;19.27;;;;;;;18.00;83.16;100660.87;1825050;78;21045;-71
2021/07/18 03:24:29;;;;;;;27.65;18.98;;;;;;;18.01;83.21;100653.09;1792970;80;20983;-70
2021/07/18 03:26:55;;;;;;;23.15;17.85;;;;;;;18.02;83.18;100670.92;1824718;78;20986;-70
2021/07/18 03:29:22;;;;;;;26.95;18.30;;;;;;;18.06;83.21;100672.16;1793125;80;21498;-71
2021/07/18 03:31:48;;;;;;;22.17;18.45;;;;;;;18.08;83.19;100677.36;1825304;78;21401;-71
2021/07/18 03:34:14;;;;;;;24.98;18.50;;;;;;;18.12;83.21;100675.91;1792820;80;20962;-70
2021/07/18 03:36:40;;;;;;;20.37;16.27;;;;;;;18.13;83.21;100677.02;1825304;78;20959;-71
2021/07/18 03:39:06;;;;;;;22.80;15.83;;;;;;;18.18;83.20;100667.78;1792915;80;20975;-70
2021/07/18 03:41:32;;;;;;;23.35;15.68;;;;;;;18.22;83.22;100671.72;1825342;78;21022;-70
2021/07/18 03:43:58;;;;;;;19.67;15.85;;;;;;;18.32;83.21;100676.14;1792806;80;21087;-71
2021/07/18 03:46:24;;;;;;;15.32;13.72;;;;;;;18.46;83.19;100672.86;1825258;78;20932;-71
2021/07/18 03:48:50;;;;;;;23.40;14.03;;;;;;;18.85;83.39;100673.22;1792858;80;20954;-71
2021/07/18 03:51:16;;;;;;;15.38;13.22;;;;;;;19.42;83.34;100673.02;1825078;78;21133;-71
2021/07/18 03:53:42;;;;;;;18.42;12.93;;;;;;;19.91;83.02;100674.05;1792526;80;20958;-71
2021/07/18 03:56:09;;;;;;;20.68;12.55;;;;;;;20.26;82.75;100675.11;1824888;78;21712;-71
2021/07/18 03:58:35;;;;;;;19.48;13.18;;;;;;;20.65;82.42;100667.57;1792464;80;21494;-71
2021/07/18 04:01:01;;;;;;;18.17;12.30;;;;;;;21.06;82.11;100668.95;1825478;78;20956;-71
2021/07/18 04:03:28;;;;;;;14.45;11.22;;;;;;;21.57;81.76;100674.33;1792635;80;20962;-71
2021/07/18 04:05:54;;;;;;;15.53;11.40;;;;;;;22.04;81.32;100678.70;1824987;78;20955;-71
2021/07/18 04:08:20;;;;;;;14.55;10.85;;;;;;;22.52;80.79;100669.39;1792650;80;21676;-71
2021/07/18 04:10:46;;;;;;;15.63;11.10;;;;;;;22.87;80.08;100679.60;1824599;78;20920;-71
2021/07/18 04:13:12;;;;;;;16.20;10.80;;;;;;;23.11;79.44;100674.89;1792601;80;21374;-71
2021/07/18 04:15:38;;;;;;;19.37;11.75;;;;;;;23.31;78.96;100676.06;1824584;78;21295;-71
2021/07/18 04:18:10;;;;;;;14.43;9.63;;;;;;;23.64;78.40;100667.64;1792668;80;20982;-71
2021/07/18 04:20:36;;;;;;;13.98;10.25;;;;;;;23.98;77.68;100665.14;1825101;78;21826;-71
2021/07/18 04:23:03;;;;;;;19.65;11.12;;;;;;;24.32;76.89;100670.80;1792595;80;20963;-71
2021/07/18 04:25:29;;;;;;;14.20;9.50;;;;;;;24.51;76.04;100669.12;1824917;78;20955;-71
2021/07/18 04:27:55;;;;;;;13.58;9.80;;;;;;;24.50;75.24;100672.91;1792592;80;20994;-71
2021/07/18 04:30:21;;;;;;;14.65;10.40;;;;;;;24.33;74.60;100671.63;1825247;78;21380;-71
2021/07/18 04:32:48;;;;;;;15.48;10.25;;;;;;;24.00;73.88;100671.15;1792341;80;22594;-71
2021/07/18 04:35:14;;;;;;;14.45;9.63;;;;;;;23.92;73.55;100670.77;1824725;78;20882;-71
2021/07/18 04:37:40;;;;;;;13.90;10.23;;;;;;;23.99;73.15;100672.78;1792366;80;20954;-71
2021/07/18 04:40:07;;;;;;;12.60;9.65;;;;;;;24.28;72.64;100671.02;1824994;78;20967;-71
2021/07/18 04:42:33;;;;;;;13.25;9.78;;;;;;;24.20;71.47;100676.93;1792548;80;20978;-71
2021/07/18 04:44:59;;;;;;;13.85;9.98;;;;;;;23.89;71.23;100673.44;1824922;78;21928;-71
2021/07/18 04:47:25;;;;;;;15.55;10.20;;;;;;;23.48;71.23;100675.26;1792589;80;21436;-72
2021/07/18 04:49:52;;;;;;;15.18;10.43;;;;;;;23.09;71.53;100677.84;1824783;78;20895;-72
2021/07/18 04:52:18;;;;;;;13.98;9.83;;;;;;;22.88;71.66;100680.73;1793975;79;21002;-71
2021/07/18 04:54:44;;;;;;;12.10;9.78;;;;;;;22.75;71.75;100678.84;1828328;78;20963;-71
2021/07/18 04:57:11;;;;;;;14.65;9.83;;;;;;;22.74;71.77;100680.73;1796091;79;22523;-71
2021/07/18 04:59:37;;;;;;;14.63;9.38;;;;;;;22.68;71.73;100682.24;1828754;78;20950;-72
2021/07/18 05:02:04;;;;;;;13.90;9.55;;;;;;;22.59;71.66;100679.03;1796209;79;21364;-71
2021/07/18 05:04:30;;;;;;;14.85;9.68;;;;;;;22.64;71.65;100682.40;1828784;78;20947;-71
2021/07/18 05:06:56;;;;;;;20.80;11.78;;;;;;;22.87;71.74;100689.13;1796054;79;20977;-71
2021/07/18 05:09:22;;;;;;;11.22;9.38;;;;;;;23.06;71.62;100689.22;1828857;78;21920;-71
2021/07/18 05:11:48;;;;;;;21.15;9.90;;;;;;;23.12;71.52;100685.52;1796147;79;21353;-72
2021/07/18 05:14:14;;;;;;;19.50;11.08;;;;;;;23.15;71.40;100686.94;1828872;78;20959;-72
2021/07/18 05:16:40;;;;;;;13.58;9.70;;;;;;;22.96;71.28;100687.68;1796333;79;20973;-71
2021/07/18 05:19:06;;;;;;;13.00;9.48;;;;;;;22.57;71.08;100689.87;1828798;78;21053;-71
2021/07/18 05:21:32;;;;;;;16.80;10.00;;;;;;;22.21;71.16;100697.28;1790144;79;21922;-71
2021/07/18 05:23:58;;;;;;;16.10;10.05;;;;;;;21.95;71.18;100701.87;1798933;78;20950;-71
2021/07/18 05:26:24;;;;;;;14.47;10.10;;;;;;;21.62;71.11;100705.65;1763393;81;20958;-71
2021/07/18 05:28:50;;;;;;;15.63;10.53;;;;;;;21.54;71.21;100708.70;1763347;81;21366;-72
2021/07/18 05:31:16;;;;;;;15.65;10.08;;;;;;;21.56;71.28;100709.31;1763466;81;20886;-71
2021/07/18 05:33:42;;;;;;;14.87;10.05;;;;;;;21.86;71.41;100707.31;1763028;81;21713;-72
2021/07/18 05:36:11;;;;;;;21.48;10.95;;;;;;;22.22;71.35;100701.66;1762997;81;21001;-71
2021/07/18 05:38:37;;;;;;;21.17;10.65;;;;;;;22.46;71.28;100701.59;1763200;81;21753;-71
2021/07/18 05:41:04;;;;;;;14.47;9.60;;;;;;;22.65;71.16;100695.77;1763224;81;20958;-71
2021/07/18 05:43:30;;;;;;;11.68;9.40;;;;;;;22.87;71.08;100701.36;1796323;79;20982;-71
2021/07/18 05:45:57;;;;;;;13.13;8.70;;;;;;;23.03;70.93;100700.59;1796427;79;21820;-71
2021/07/18 05:48:24;;;;;;;18.75;9.48;;;;;;;23.26;70.75;100708.63;1796289;79;21443;-71
2021/07/18 05:50:51;;;;;;;13.93;9.93;;;;;;;23.37;70.50;100702.28;1796051;79;20958;-71
2021/07/18 05:53:17;;;;;;;12.88;8.88;;;;;;;23.50;70.28;100701.19;1793342;79;20997;-72
2021/07/18 05:55:44;;;;;;;17.07;9.18;;;;;;;23.57;70.11;100701.02;1792619;80;21274;-72
2021/07/18 05:58:10;;;;;;;18.30;9.28;;;;;;;23.65;69.84;100692.41;1792236;80;21817;-72
2021/07/18 06:00:37;;;;;;;16.48;8.55;;;;;;;23.84;69.47;100696.00;1792543;80;20962;-72
2021/07/18 06:03:03;;;;;;;16.60;8.45;;;;;;;23.81;69.27;100697.04;1792659;79;20975;-72
2021/07/18 06:05:29;;;;;;;14.78;8.10;;;;;;;23.89;69.11;100696.59;1792679;80;20997;-72
2021/07/18 06:07:55;;;;;;;10.23;8.23;;;;;;;24.00;68.97;100694.84;1792496;80;20958;-72
2021/07/18 06:10:21;;;;;;;14.68;8.35;;;;;;;24.19;68.72;100698.98;1792735;80;22980;-72
2021/07/18 06:12:48;;;;;;;14.30;8.68;;;;;;;24.26;68.42;100703.17;1792615;80;21355;-72
2021/07/18 06:15:14;;;;;;;13.55;8.33;;;;;;;24.14;68.13;100702.45;1792733;80;20847;-72
2021/07/18 06:17:40;;;;;;;14.05;8.25;;;;;;;24.04;67.87;100698.19;1792574;80;20975;-72
2021/07/18 06:20:07;;;;;;;12.18;8.28;;;;;;;24.09;67.74;100699.64;1792722;80;20946;-72
2021/07/18 06:22:34;;;;;;;11.90;7.60;;;;;;;24.16;67.52;100698.95;1792662;80;21780;-72
2021/07/18 06:25:01;;;;;;;14.40;8.23;;;;;;;24.21;67.24;100703.09;1792369;80;20941;-72
2021/07/18 06:27:27;;;;;;;12.43;7.62;;;;;;;24.31;67.09;100710.03;1792822;80;21395;-72
2021/07/18 06:29:53;;;;;;;14.87;7.47;;;;;;;24.31;67.00;100712.77;1792657;79;21179;-72
2021/07/18 06:32:20;;;;;;;15.40;6.58;;;;;;;24.33;66.80;100711.98;1792347;80;20997;-72
2021/07/18 06:34:47;;;;;;;10.32;6.75;;;;;;;24.35;66.67;100707.09;1792671;80;21919;-72
2021/07/18 06:37:13;;;;;;;13.25;7.65;;;;;;;24.45;66.58;100710.52;1792193;80;21021;-72
2021/07/18 06:39:39;;;;;;;9.10;6.22;;;;;;;24.44;66.43;100714.84;1792551;80;20970;-72
2021/07/18 06:42:05;;;;;;;12.03;6.83;;;;;;;24.57;66.39;100715.82;1792611;80;21428;-72
2021/07/18 06:44:31;;;;;;;11.80;6.45;;;;;;;24.69;66.30;100713.80;1792781;80;20997;-72
2021/07/18 06:46:57;;;;;;;14.30;6.50;;;;;;;24.71;66.09;100714.35;1792483;80;21895;-72
2021/07/18 06:49:23;;;;;;;11.20;6.45;;;;;;;24.90;66.04;100717.08;1792697;80;21438;-72
2021/07/18 06:51:49;;;;;;;11.18;6.00;;;;;;;24.92;65.86;100714.07;1792639;80;21375;-72
2021/07/18 06:54:15;;;;;;;10.48;6.67;;;;;;;25.00;65.78;100714.98;1792128;79;21146;-72
2021/07/18 06:56:41;;;;;;;8.65;5.87;;;;;;;25.01;65.54;100720.73;1792627;80;21030;-72
2021/07/18 06:59:08;;;;;;;11.68;6.17;;;;;;;24.92;65.40;100716.27;1792231;80;21988;-72
2021/07/18 07:01:34;;;;;;;11.45;6.12;;;;;;;25.12;65.31;100717.83;1792532;80;20954;-72
2021/07/18 07:04:00;;;;;;;11.80;6.03;;;;;;;25.30;65.18;100717.47;1792238;80;20909;-72
2021/07/18 07:06:26;;;;;;;10.43;5.58;;;;;;;25.12;64.98;100719.77;1792810;80;21045;-72
2021/07/18 07:08:52;;;;;;;8.95;6.03;;;;;;;25.13;64.92;100716.76;1763288;80;20969;-72
2021/07/18 07:11:19;;;;;;;10.18;5.50;;;;;;;25.01;64.73;100718.01;1792547;79;22471;-72
2021/07/18 07:13:47;;;;;;;15.05;6.00;;;;;;;24.65;64.76;100718.11;1792533;80;20954;-72
2021/07/18 07:16:13;;;;;;;10.65;6.05;;;;;;;24.79;64.90;100718.00;1792521;80;20994;-72
2021/07/18 07:18:39;;;;;;;12.75;5.20;;;;;;;24.99;64.77;100715.52;1792642;80;21514;-72
2021/07/18 07:21:05;;;;;;;13.03;5.72;;;;;;;24.93;64.52;100719.28;1792818;80;20962;-72
2021/07/18 07:23:31;;;;;;;10.90;6.50;;;;;;;24.47;64.47;100731.52;1792606;80;21590;-72
2021/07/18 07:25:57;;;;;;;11.08;5.20;;;;;;;24.30;64.48;100725.30;1792470;80;21632;-72
2021/07/18 07:28:23;;;;;;;15.10;5.45;;;;;;;24.72;64.63;100728.29;1792563;79;20879;-72
2021/07/18 07:30:49;;;;;;;6.92;4.80;;;;;;;25.02;64.41;100723.19;1792612;80;20966;-72
2021/07/18 07:33:15;;;;;;;7.85;5.28;;;;;;;25.32;64.30;100728.97;1763768;80;20964;-72
2021/07/18 07:35:41;;;;;;;7.17;5.60;;;;;;;25.63;64.07;100726.53;1792572;80;21944;-72
2021/07/18 07:38:08;;;;;;;10.23;5.53;;;;;;;25.51;63.80;100729.42;1792168;80;20934;-71
2021/07/18 07:40:34;;;;;;;12.03;5.70;;;;;;;25.59;63.67;100726.77;1792571;80;20966;-72
2021/07/18 07:43:00;;;;;;;12.33;4.87;;;;;;;25.74;63.60;100725.53;1792387;80;20970;-72
2021/07/18 07:45:26;;;;;;;10.05;5.67;;;;;;;25.40;63.21;100725.49;1792752;80;20990;-72
2021/07/18 07:47:52;;;;;;;10.93;5.60;;;;;;;25.29;63.25;100725.40;1792706;80;21933;-72
2021/07/18 07:50:18;;;;;;;9.18;6.10;;;;;;;25.19;63.24;100732.09;1792389;80;20994;-72
2021/07/18 07:52:44;;;;;;;15.15;5.83;;;;;;;25.27;62.94;100731.64;1792028;79;20988;-71
2021/07/18 07:55:11;;;;;;;9.23;5.12;;;;;;;25.12;62.73;100735.58;1764258;81;21407;-72
2021/07/18 07:57:37;;;;;;;10.80;4.72;;;;;;;25.26;62.54;100723.73;1763892;81;21028;-72
2021/07/18 08:00:09;;;;;;;8.93;5.08;;;;;;;25.54;62.25;100729.47;1757816;81;21912;-72
2021/07/18 08:02:36;;;;;;;10.55;4.90;;;;;;;25.89;62.07;100721.55;1763963;81;20958;-72
2021/07/18 08:05:02;;;;;;;11.85;5.72;;;;;;;25.63;61.29;100729.27;1763940;81;21463;-72
2021/07/18 08:07:28;;;;;;;8.73;5.00;;;;;;;25.19;61.37;100732.09;1757784;81;21508;-72
2021/07/18 08:09:54;;;;;;;9.90;5.45;;;;;;;25.33;61.46;100736.06;1763974;81;20859;-72
2021/07/18 08:12:20;;;;;;;7.58;5.05;;;;;;;25.71;61.33;100727.42;1757942;81;21822;-72
2021/07/18 08:14:46;;;;;;;8.38;5.97;;;;;;;25.90;60.96;100729.18;1763869;81;20973;-72
2021/07/18 08:17:14;;;;;;;9.33;5.33;;;;;;;25.66;60.83;100723.27;1763994;81;21017;-72
2021/07/18 08:19:42;;;;;;;10.58;4.95;;;;;;;25.59;60.73;100725.40;1758045;81;21460;-72
2021/07/18 08:22:08;;;;;;;11.18;5.20;;;;;;;25.65;60.38;100713.45;1763908;81;21020;-72
2021/07/18 08:24:35;;;;;;;15.35;6.28;;;;;;;25.86;60.15;100716.61;1763603;81;21758;-72
2021/07/18 08:27:02;;;;;;;9.83;5.58;;;;;;;26.00;59.92;100715.04;1757822;81;20992;-72
2021/07/18 08:29:28;;;;;;;11.50;4.90;;;;;;;25.98;59.52;100722.69;1763697;81;21615;-72
2021/07/18 08:31:57;;;;;;;12.23;4.95;;;;;;;25.97;59.44;100723.77;1763579;81;21468;-72
2021/07/18 08:34:24;;;;;;;9.43;5.00;;;;;;;26.05;59.29;100726.02;1763745;81;21678;-72
2021/07/18 08:36:50;;;;;;;12.53;4.80;;;;;;;25.60;58.87;100722.95;1758036;81;21493;-72
2021/07/18 08:39:16;;;;;;;11.12;5.47;;;;;;;25.37;58.84;100719.19;1763599;81;21470;-72
2021/07/18 08:41:44;;;;;;;10.13;4.92;;;;;;;25.48;58.74;100721.73;1757894;81;21427;-72
2021/07/18 08:44:16;;;;;;;8.55;4.80;;;;;;;25.61;58.61;100717.78;1763932;81;20965;-72
2021/07/18 08:46:42;;;;;;;10.68;5.90;;;;;;;25.66;58.25;100713.70;1764070;81;20894;-72
2021/07/18 08:49:09;;;;;;;11.60;4.97;;;;;;;25.66;58.06;100715.08;1757963;81;21831;-72
2021/07/18 08:51:35;;;;;;;10.95;5.25;;;;;;;25.66;57.82;100713.17;1739780;81;20977;-72
2021/07/18 08:54:01;;;;;;;7.50;5.05;;;;;;;25.75;57.93;100708.05;1758612;81;20981;-72
2021/07/18 08:56:32;;;;;;;7.75;5.20;;;;;;;25.78;57.61;100708.36;1763856;80;21427;-72
2021/07/18 08:59:05;;;;;;;9.83;5.33;;;;;;;25.71;57.74;100707.76;1792660;80;21454;-72
2021/07/18 09:01:34;;;;;;;7.75;5.20;;;;;;;25.83;57.55;100717.11;1792683;80;21930;-72
2021/07/18 09:04:00;;;;;;;8.98;5.15;;;;;;;25.97;57.53;100714.20;1792481;80;21054;-72
2021/07/18 09:06:45;;;;;;;9.40;5.10;;;;;;;26.11;57.50;100715.38;1792644;80;20981;-72
2021/07/18 09:09:15;;;;;;;9.80;4.62;;;;;;;26.26;57.27;100701.84;1791804;79;21028;-72
2021/07/18 09:11:42;;;;;;;8.38;4.80;;;;;;;26.27;56.96;100709.50;1792349;80;20966;-72
2021/07/18 09:14:09;;;;;;;8.25;4.67;;;;;;;26.19;56.65;100714.92;1792044;80;21939;-72
2021/07/18 09:16:38;;;;;;;9.00;5.22;;;;;;;26.24;56.77;100710.86;1792335;80;21033;-72
2021/07/18 09:19:32;;;;;;;7.70;4.62;;;;;;;26.33;56.72;100709.80;1792056;80;21001;-72
2021/07/18 09:22:06;;;;;;;9.35;4.53;;;;;;;26.45;56.71;100706.31;1792578;80;21480;-72
2021/07/18 09:24:42;;;;;;;10.08;4.20;;;;;;;26.23;56.34;100720.14;1792678;80;21439;-72
2021/07/18 09:27:12;;;;;;;9.28;4.37;;;;;;;26.04;56.44;100711.23;1792393;80;21946;-72
2021/07/18 09:29:49;;;;;;;8.95;3.95;;;;;;;26.24;56.49;100709.50;1792435;80;21025;-72
2021/07/18 09:32:20;;;;;;;9.70;4.33;;;;;;;26.33;56.25;100707.06;1792522;80;20978;-72
2021/07/18 09:34:50;;;;;;;7.60;4.50;;;;;;;26.38;56.25;100707.09;1792355;80;20977;-72
2021/07/18 09:37:27;;;;;;;7.05;3.90;;;;;;;26.56;56.15;100705.81;1791779;80;20954;-72
2021/07/18 09:40:05;;;;;;;4.53;3.20;;;;;;;26.72;56.06;100707.50;1792047;80;22513;-72
2021/07/18 09:42:47;;;;;;;9.18;3.37;;;;;;;26.81;55.78;100706.70;1792614;80;20982;-72
2021/07/18 09:45:20;;;;;;;8.10;3.52;;;;;;;26.46;55.53;100707.14;1792556;80;20958;-71
2021/07/18 09:47:54;;;;;;;7.87;3.92;;;;;;;26.28;55.58;100693.38;1792285;80;21379;-72
2021/07/18 09:50:23;;;;;;;8.60;3.67;;;;;;;26.28;55.53;100690.64;1792622;80;20970;-72
2021/07/18 09:52:49;;;;;;;8.55;3.12;;;;;;;26.25;55.23;100701.55;1792222;80;21773;-72
2021/07/18 09:55:22;;;;;;;11.25;3.62;;;;;;;26.19;55.14;100697.69;1774530;79;21044;-72
2021/07/18 09:57:52;;;;;;;7.17;3.58;;;;;;;26.25;55.09;100701.55;1774538;80;21013;-72
2021/07/18 10:00:19;;;;;;;5.65;3.37;;;;;;;26.31;55.10;100699.14;1774487;80;21037;-72
2021/07/18 10:02:45;;;;;;;8.08;3.50;;;;;;;26.15;54.97;100708.30;1774623;80;20985;-72
2021/07/18 10:05:27;;;;;;;8.48;3.08;;;;;;;26.02;54.96;100710.15;1774519;80;21815;-72
2021/07/18 10:08:06;;;;;;;7.30;2.65;;;;;;;26.19;55.08;100697.15;1774338;79;20937;-72
2021/07/18 10:10:34;;;;;;;6.72;3.22;;;;;;;26.22;54.81;100705.36;1767849;78;21045;-72
2021/07/18 10:13:02;;;;;;;8.33;2.83;;;;;;;26.30;54.82;100697.48;1810984;78;21528;-72
2021/07/18 10:15:29;;;;;;;6.62;3.27;;;;;;;26.36;54.57;100696.95;1764444;78;21045;-72
2021/07/18 10:17:56;;;;;;;5.47;3.05;;;;;;;26.48;54.58;100694.00;1808155;78;21931;-72
2021/07/18 10:20:23;;;;;;;8.45;2.83;;;;;;;26.73;54.60;100699.58;1775000;79;20935;-71
2021/07/18 10:22:54;;;;;;;5.35;2.33;;;;;;;26.77;54.18;100699.31;1766166;80;20917;-72
2021/07/18 10:25:23;;;;;;;8.13;2.77;;;;;;;26.60;53.97;100691.30;1806237;77;21422;-72
2021/07/18 10:27:49;;;;;;;7.33;3.02;;;;;;;26.54;53.93;100691.55;1759422;80;21526;-72
2021/07/18 10:30:18;;;;;;;3.25;2.20;;;;;;;26.50;53.82;100690.44;1786427;79;21911;-72
2021/07/18 10:32:44;;;;;;;5.62;2.22;;;;;;;26.51;53.76;100700.30;1805876;77;20981;-72
2021/07/18 10:35:12;;;;;;;6.95;2.67;;;;;;;26.45;53.58;100687.70;1808818;78;21476;-72
2021/07/18 10:37:39;;;;;;;10.60;2.62;;;;;;;26.48;53.65;100687.98;1810404;78;21400;-72
2021/07/18 10:40:15;;;;;;;7.28;2.67;;;;;;;26.49;53.61;100683.34;1819407;78;21431;-72
2021/07/18 10:42:41;;;;;;;13.25;3.30;;;;;;;26.47;53.56;100680.87;1799287;78;21809;-72
2021/07/18 10:45:30;;;;;;;5.92;2.60;;;;;;;26.45;53.35;100674.02;1815829;78;20998;-72
2021/07/18 10:48:00;;;;;;;4.47;2.10;;;;;;;26.44;53.20;100672.38;1803125;78;20928;-72
2021/07/18 10:50:49;;;;;;;11.33;2.70;;;;;;;26.45;53.19;100672.66;1802395;78;21078;-72
2021/07/18 10:53:24;;;;;;;13.18;3.22;;;;;;;26.48;53.16;100670.75;1813980;78;21009;-72
2021/07/18 10:55:52;;;;;;;3.17;2.27;;;;;;;26.50;53.10;100674.02;1808383;78;21880;-72
2021/07/18 10:58:45;;;;;;;9.78;2.95;;;;;;;26.56;53.20;100677.91;1802753;78;21467;-71
2021/07/18 11:01:31;;;;;;;5.55;2.30;;;;;;;26.49;53.24;100675.14;1750325;80;21022;-72
2021/07/18 11:03:58;;;;;;;4.15;2.25;;;;;;;26.51;53.15;100675.68;1787290;79;21002;-72
2021/07/18 11:06:27;;;;;;;5.22;2.40;;;;;;;26.60;53.30;100679.56;1786211;79;21286;-72
2021/07/18 11:09:18;;;;;;;8.70;2.27;;;;;;;26.62;53.28;100685.58;1787935;79;21849;-72
2021/07/18 11:11:55;;;;;;;6.47;2.27;;;;;;;26.81;53.42;100684.00;1779638;79;20987;-72
2021/07/18 11:14:35;;;;;;;8.98;2.00;;;;;;;26.96;53.17;100684.05;1784434;79;21031;-72
2021/07/18 11:17:06;;;;;;;5.25;2.00;;;;;;;26.89;52.88;100680.75;1785792;79;21032;-72
2021/07/18 11:19:54;;;;;;;5.35;2.02;;;;;;;26.87;52.72;100672.00;1779895;79;21012;-72